This is the latest recevied weather packets stored in our database for station/object WS2Z. If no packets are shown the sender has not sent any weather packets the latest 10 day(s).
| Time | Temp. | Humidity | Pressure | Rain* | Wind** | Luminosity | Snow |
|---|---|---|---|---|---|---|---|
| 1778087084 | 33.33° C | 53% | 1017.3 hPa | 0 mm | - | 216 W/m² | - |
| 1778086782 | 33.33° C | 51% | 1017.5 hPa | 0 mm | - | 298 W/m² | - |
| 1778086480 | 32.78° C | 56% | 1017.2 hPa | 0 mm | - | 942 W/m² | - |
| 1778086176 | 33.33° C | 48% | 1017.3 hPa | 0 mm | - | 947 W/m² | - |
| 1778085873 | 33.33° C | 47% | 1017.3 hPa | 0 mm | - | 951 W/m² | - |
| 1778085572 | 33.33° C | 49% | 1017.3 hPa | 0 mm | - | 890 W/m² | - |
| 1778085266 | 32.78° C | 50% | 1017.4 hPa | 0 mm | - | 880 W/m² | - |
| 1778084961 | 32.22° C | 55% | 1017.2 hPa | 0 mm | - | 854 W/m² | - |
| 1778084659 | 32.22° C | 54% | 1017.4 hPa | 0 mm | - | 842 W/m² | - |
| 1778084356 | 31.67° C | 54% | 1017.3 hPa | 0 mm | - | 878 W/m² | - |
| 1778084054 | 31.67° C | 54% | 1017.4 hPa | 0 mm | - | 794 W/m² | - |
| 1778083751 | 31.67° C | 58% | 1017.4 hPa | 0 mm | - | 752 W/m² | - |
| 1778083448 | 31.67° C | 56% | 1017.3 hPa | 0 mm | - | 722 W/m² | - |
| 1778083146 | 31.11° C | 63% | 1017.3 hPa | 0 mm | - | 718 W/m² | - |
| 1778082843 | 31.11° C | 58% | 1017.3 hPa | 0 mm | - | 363 W/m² | - |
| 1778081719 | 31.11° C | 59% | 1017.3 hPa | 0 mm | - | 607 W/m² | - |
| 1778081417 | 30.56° C | 62% | 1017.6 hPa | 0 mm | - | 330 W/m² | - |
| 1778081114 | 30.56° C | 63% | 1017.6 hPa | 0 mm | - | 289 W/m² | - |
| 1778080812 | 30.56° C | 63% | 1017.4 hPa | 0 mm | - | 153 W/m² | - |
| 1778080509 | 30.56° C | 65% | 1017.5 hPa | 0 mm | - | 295 W/m² | - |
| 1778080206 | 30.56° C | 67% | 1017.3 hPa | 0 mm | - | 199 W/m² | - |
| 1778079902 | 30° C | 67% | 1017.6 hPa | 0 mm | - | 208 W/m² | - |
| 1778079599 | 30° C | 66% | 1017.5 hPa | 0 mm | - | 223 W/m² | - |
| 1778079296 | 29.44° C | 68% | 1017.5 hPa | 0 mm | - | 139 W/m² | - |
| 1778078994 | 29.44° C | 66% | 1017.5 hPa | 0 mm | - | 168 W/m² | - |
* Rain latest hour (hover to see other rain measurements)
** Current wind speed in m/s (hover to see current wind gust speed)